createdAt,value
2023-04-29T00:00:38.395Z,7.57
2023-04-29T00:01:38.371Z,7.54
2023-04-29T00:02:38.497Z,7.57
2023-04-29T00:03:38.487Z,7.63
2023-04-29T00:04:38.604Z,7.48
2023-04-29T00:05:38.526Z,7.50
2023-04-29T00:06:38.318Z,7.52
2023-04-29T00:07:38.325Z,7.58
2023-04-29T00:08:38.328Z,7.42
2023-04-29T00:09:38.304Z,7.48
2023-04-29T00:10:38.274Z,7.52
2023-04-29T00:11:38.263Z,7.51
2023-04-29T00:12:38.251Z,7.48
2023-04-29T00:13:38.245Z,7.47
2023-04-29T00:14:38.244Z,7.45
2023-04-29T00:15:38.280Z,7.42
2023-04-29T00:16:38.283Z,7.45
2023-04-29T00:17:38.219Z,7.47
2023-04-29T00:18:38.190Z,7.45
2023-04-29T00:19:38.175Z,7.50
2023-04-29T00:20:38.186Z,7.55
2023-04-29T00:21:38.162Z,7.51
2023-04-29T00:22:38.142Z,7.47
2023-04-29T00:23:38.152Z,7.44
2023-04-29T00:24:38.136Z,7.48
2023-04-29T00:25:38.105Z,7.44
2023-04-29T00:26:38.120Z,7.50
2023-04-29T00:27:38.085Z,7.50
2023-04-29T00:28:38.077Z,7.41
2023-04-29T00:29:38.061Z,7.41
2023-04-29T00:30:38.157Z,7.44
2023-04-29T00:31:38.286Z,7.44
2023-04-29T00:32:38.093Z,7.39
2023-04-29T00:33:38.019Z,7.37
2023-04-29T00:34:38.031Z,7.39
2023-04-29T00:35:38.013Z,7.41
2023-04-29T00:36:37.996Z,7.45
2023-04-29T00:37:37.984Z,7.51
2023-04-29T00:38:37.982Z,7.41
2023-04-29T00:39:37.972Z,7.32
2023-04-29T00:40:37.957Z,7.33
2023-04-29T00:41:37.930Z,7.42
2023-04-29T00:42:37.925Z,7.50
2023-04-29T00:43:37.908Z,7.48
2023-04-29T00:44:37.917Z,7.45
2023-04-29T00:45:37.897Z,7.45
2023-04-29T00:46:37.927Z,7.44
2023-04-29T00:47:37.911Z,7.37
2023-04-29T00:48:37.881Z,7.41
2023-04-29T00:49:37.841Z,7.39
2023-04-29T00:50:37.876Z,7.47
2023-04-29T00:51:37.817Z,7.34
2023-04-29T00:52:37.821Z,7.42
2023-04-29T00:53:37.799Z,7.39
2023-04-29T00:54:37.792Z,7.44
2023-04-29T00:55:37.796Z,7.41
2023-04-29T00:56:37.802Z,7.41
2023-04-29T00:57:37.755Z,7.36
2023-04-29T00:58:37.761Z,7.33
2023-04-29T00:59:37.742Z,7.33
2023-04-29T01:00:37.741Z,7.32
2023-04-29T01:01:37.741Z,7.30
2023-04-29T01:02:37.924Z,7.21
2023-04-29T01:03:37.883Z,7.24
2023-04-29T01:04:37.707Z,7.29
2023-04-29T01:05:37.680Z,7.27
2023-04-29T01:06:37.674Z,7.18
2023-04-29T01:07:37.668Z,7.26
2023-04-29T01:08:37.654Z,7.24
2023-04-29T01:09:37.626Z,7.23
2023-04-29T01:10:37.623Z,7.19
2023-04-29T01:11:37.646Z,7.19
2023-04-29T01:12:37.604Z,7.19
2023-04-29T01:13:37.583Z,7.34
2023-04-29T01:14:37.590Z,7.14
2023-04-29T01:15:37.581Z,7.32
2023-04-29T01:16:37.649Z,7.27
2023-04-29T01:17:37.635Z,7.16
2023-04-29T01:18:37.532Z,7.14
2023-04-29T01:19:37.522Z,7.21
2023-04-29T01:20:37.552Z,7.21
2023-04-29T01:21:37.505Z,7.16
2023-04-29T01:22:37.486Z,7.12
2023-04-29T01:23:37.499Z,7.23
2023-04-29T01:24:37.465Z,7.07
2023-04-29T01:25:37.450Z,7.21
2023-04-29T01:26:37.465Z,7.09
2023-04-29T01:27:37.461Z,7.09
2023-04-29T01:28:37.418Z,7.11
2023-04-29T01:29:37.418Z,7.15
2023-04-29T01:30:37.398Z,7.05
2023-04-29T01:31:37.426Z,7.21
2023-04-29T01:32:37.407Z,7.15
2023-04-29T01:33:37.364Z,7.12
2023-04-29T01:34:37.370Z,7.19
2023-04-29T01:35:37.339Z,7.11
2023-04-29T01:36:37.331Z,7.04
2023-04-29T01:37:37.318Z,7.14
2023-04-29T01:38:37.340Z,7.11
2023-04-29T01:39:37.332Z,7.12
2023-04-29T01:40:37.290Z,7.15
2023-04-29T01:41:37.273Z,7.19
2023-04-29T01:42:37.267Z,7.14
2023-04-29T01:43:37.280Z,7.18
2023-04-29T01:44:37.270Z,7.16
2023-04-29T01:45:37.255Z,7.11
2023-04-29T01:46:37.277Z,7.04
2023-04-29T01:47:37.234Z,7.18
2023-04-29T01:48:37.207Z,7.09
2023-04-29T01:49:37.207Z,7.09
2023-04-29T01:50:37.232Z,7.00
2023-04-29T01:51:37.172Z,7.05
2023-04-29T01:52:37.202Z,6.91
2023-04-29T01:53:37.150Z,6.96
2023-04-29T01:54:37.153Z,6.99
2023-04-29T01:55:37.137Z,6.97
2023-04-29T01:56:37.149Z,6.97
2023-04-29T01:57:37.121Z,6.91
2023-04-29T01:58:37.098Z,6.93
2023-04-29T01:59:37.124Z,6.89
2023-04-29T02:00:37.120Z,6.81
2023-04-29T02:01:37.059Z,6.90
2023-04-29T02:02:37.150Z,6.86
2023-04-29T02:03:37.206Z,6.87
2023-04-29T02:04:37.117Z,6.78
2023-04-29T02:05:37.018Z,6.82
2023-04-29T02:06:37.073Z,6.82
2023-04-29T02:07:36.989Z,6.82
2023-04-29T02:08:37.015Z,6.90
2023-04-29T02:09:36.969Z,6.89
2023-04-29T02:10:36.966Z,6.91
2023-04-29T02:11:36.960Z,6.82
2023-04-29T02:12:36.952Z,6.87
2023-04-29T02:13:36.927Z,6.86
2023-04-29T02:14:37.965Z,6.79
2023-04-29T02:15:36.930Z,6.78
2023-04-29T02:16:36.929Z,6.79
2023-04-29T02:17:36.912Z,6.97
2023-04-29T02:18:36.894Z,6.89
2023-04-29T02:19:36.891Z,6.87
2023-04-29T02:20:36.875Z,6.75
2023-04-29T02:21:36.846Z,6.86
2023-04-29T02:22:36.838Z,6.86
2023-04-29T02:23:36.833Z,6.89
2023-04-29T02:24:36.824Z,7.00
2023-04-29T02:25:36.811Z,6.87
2023-04-29T02:26:36.844Z,6.87
2023-04-29T02:27:36.778Z,6.83
2023-04-29T02:28:36.774Z,6.90
2023-04-29T02:29:36.757Z,6.86
2023-04-29T02:30:36.751Z,6.91
2023-04-29T02:31:36.791Z,6.86
2023-04-29T02:32:36.779Z,6.87
2023-04-29T02:33:36.748Z,6.97
2023-04-29T02:34:36.705Z,6.91
2023-04-29T02:35:36.689Z,6.96
2023-04-29T02:36:36.688Z,6.91
2023-04-29T02:37:36.672Z,7.01
2023-04-29T02:38:36.679Z,6.94
2023-04-29T02:39:36.659Z,6.86
2023-04-29T02:40:36.642Z,6.75
2023-04-29T02:41:36.635Z,6.89
2023-04-29T02:42:36.630Z,6.86
2023-04-29T02:43:36.634Z,6.86
2023-04-29T02:44:36.624Z,6.97
2023-04-29T02:45:36.621Z,6.91
2023-04-29T02:46:36.577Z,6.90
2023-04-29T02:47:36.587Z,6.89
2023-04-29T02:48:36.554Z,6.93
2023-04-29T02:49:36.556Z,6.86
2023-04-29T02:50:36.549Z,6.93
2023-04-29T02:51:36.549Z,6.87
2023-04-29T02:52:36.512Z,6.90
2023-04-29T02:53:36.499Z,6.86
2023-04-29T02:54:36.498Z,6.87
2023-04-29T02:55:36.484Z,6.89
2023-04-29T02:56:36.480Z,6.89
2023-04-29T02:57:36.494Z,7.01
2023-04-29T02:58:36.446Z,7.01
2023-04-29T02:59:36.437Z,7.11
2023-04-29T03:00:36.443Z,7.12
2023-04-29T03:01:36.444Z,7.19
2023-04-29T03:02:36.556Z,7.15
2023-04-29T03:03:36.530Z,7.09
2023-04-29T03:04:36.392Z,7.09
2023-04-29T03:05:36.371Z,7.07
2023-04-29T03:06:36.369Z,6.94
2023-04-29T03:07:36.350Z,6.94
2023-04-29T03:08:36.360Z,6.79
2023-04-29T03:09:36.325Z,6.90
2023-04-29T03:10:36.315Z,6.87
2023-04-29T03:11:36.314Z,6.82
2023-04-29T03:12:36.297Z,6.73
2023-04-29T03:13:36.279Z,6.82
2023-04-29T03:14:36.295Z,6.76
2023-04-29T03:15:36.261Z,6.86
2023-04-29T03:16:36.327Z,6.90
2023-04-29T03:17:36.254Z,6.81
2023-04-29T03:18:36.239Z,6.78
2023-04-29T03:19:36.302Z,6.89
2023-04-29T03:20:36.222Z,6.81
2023-04-29T03:21:36.194Z,6.72
2023-04-29T03:22:36.196Z,6.76
2023-04-29T03:23:36.165Z,6.81
2023-04-29T03:24:36.163Z,6.75
2023-04-29T03:25:36.152Z,6.75
2023-04-29T03:26:36.164Z,6.78
2023-04-29T03:27:36.137Z,6.68
2023-04-29T03:28:36.114Z,6.78
2023-04-29T03:29:36.121Z,6.86
2023-04-29T03:30:36.101Z,6.75
2023-04-29T03:31:36.120Z,6.69
2023-04-29T03:32:36.129Z,6.72
2023-04-29T03:33:36.076Z,6.86
2023-04-29T03:34:36.075Z,6.78
2023-04-29T03:35:36.052Z,6.87
2023-04-29T03:36:36.030Z,6.94
2023-04-29T03:37:36.061Z,6.82
2023-04-29T03:38:36.035Z,6.94
2023-04-29T03:39:36.018Z,6.89
2023-04-29T03:40:35.985Z,6.76
2023-04-29T03:41:35.980Z,6.79
2023-04-29T03:42:35.966Z,6.82
2023-04-29T03:43:35.964Z,6.89
2023-04-29T03:44:35.973Z,6.96
2023-04-29T03:45:35.941Z,6.82
2023-04-29T03:46:36.095Z,6.91
2023-04-29T03:47:35.937Z,6.94
2023-04-29T03:48:35.906Z,6.93
2023-04-29T03:49:35.894Z,7.00
2023-04-29T03:50:35.912Z,6.93
2023-04-29T03:51:35.876Z,6.90
2023-04-29T03:52:35.852Z,6.87
2023-04-29T03:53:35.840Z,6.83
2023-04-29T03:54:35.838Z,6.87
2023-04-29T03:55:35.827Z,6.87
2023-04-29T03:56:35.823Z,6.91
2023-04-29T03:57:35.801Z,6.82
2023-04-29T03:58:35.796Z,6.86
2023-04-29T03:59:35.773Z,6.73
2023-04-29T04:00:35.766Z,6.72
2023-04-29T04:01:35.800Z,6.75
2023-04-29T04:02:35.824Z,6.68
2023-04-29T04:03:35.918Z,6.68
2023-04-29T04:04:35.940Z,6.72
2023-04-29T04:05:35.722Z,6.64
2023-04-29T04:06:35.700Z,6.73
2023-04-29T04:07:35.704Z,6.71
2023-04-29T04:08:35.690Z,6.81
2023-04-29T04:09:35.668Z,6.73
2023-04-29T04:10:35.680Z,6.68
2023-04-29T04:11:35.651Z,6.82
2023-04-29T04:12:35.636Z,6.72
2023-04-29T04:13:35.624Z,6.65
2023-04-29T04:14:35.633Z,6.68
2023-04-29T04:15:35.601Z,6.68
2023-04-29T04:16:35.659Z,6.72
2023-04-29T04:17:35.613Z,6.68
2023-04-29T04:18:35.563Z,6.54
2023-04-29T04:19:35.556Z,6.75
2023-04-29T04:20:35.556Z,6.75
2023-04-29T04:21:35.537Z,6.60
2023-04-29T04:22:35.527Z,6.58
2023-04-29T04:23:35.543Z,6.68
2023-04-29T04:24:35.509Z,6.78
2023-04-29T04:25:35.490Z,6.72
2023-04-29T04:26:35.498Z,6.78
2023-04-29T04:27:35.468Z,6.76
2023-04-29T04:28:35.456Z,6.71
2023-04-29T04:29:35.461Z,6.73
2023-04-29T04:30:35.434Z,6.68
2023-04-29T04:31:35.441Z,6.71
2023-04-29T04:32:35.474Z,6.69
2023-04-29T04:33:35.406Z,6.79
2023-04-29T04:34:35.399Z,6.89
2023-04-29T04:35:35.404Z,6.81
2023-04-29T04:36:35.379Z,6.75
2023-04-29T04:37:35.363Z,6.86
2023-04-29T04:38:35.382Z,6.69
2023-04-29T04:39:35.392Z,6.82
2023-04-29T04:40:35.342Z,6.90
2023-04-29T04:41:35.323Z,6.87
2023-04-29T04:42:35.309Z,6.89
2023-04-29T04:43:35.298Z,6.86
2023-04-29T04:44:35.305Z,6.82
2023-04-29T04:45:35.298Z,6.87
2023-04-29T04:46:35.282Z,6.87
2023-04-29T04:47:35.291Z,6.86
2023-04-29T04:48:35.245Z,6.79
2023-04-29T04:49:35.254Z,6.82
2023-04-29T04:50:35.261Z,6.89
2023-04-29T04:51:35.214Z,6.82
2023-04-29T04:52:35.200Z,6.91
2023-04-29T04:53:35.240Z,6.86
2023-04-29T04:54:35.179Z,6.87
2023-04-29T04:55:35.284Z,6.87
2023-04-29T04:56:35.176Z,6.86
2023-04-29T04:57:35.154Z,6.91
2023-04-29T04:58:35.138Z,6.97
2023-04-29T04:59:35.153Z,6.93
2023-04-29T05:00:35.108Z,6.87
2023-04-29T05:01:35.154Z,6.69
2023-04-29T05:02:35.205Z,6.89
2023-04-29T05:03:35.181Z,6.89
2023-04-29T05:04:35.071Z,6.90
2023-04-29T05:05:35.060Z,6.82
2023-04-29T05:06:35.050Z,6.89
2023-04-29T05:07:35.053Z,6.93
2023-04-29T05:08:35.048Z,6.94
2023-04-29T05:09:35.021Z,6.87
2023-04-29T05:10:35.005Z,6.96
2023-04-29T05:11:35.023Z,6.89
2023-04-29T05:12:35.010Z,6.83
2023-04-29T05:13:34.983Z,6.86
2023-04-29T05:14:34.979Z,6.93
2023-04-29T05:15:34.955Z,6.89
2023-04-29T05:16:34.959Z,6.94
2023-04-29T05:17:34.947Z,7.01
2023-04-29T05:18:34.930Z,6.96
2023-04-29T05:19:34.910Z,6.96
2023-04-29T05:20:34.915Z,6.96
2023-04-29T05:21:34.895Z,6.90
2023-04-29T05:22:34.887Z,6.99
2023-04-29T05:23:34.868Z,6.97
2023-04-29T05:24:34.873Z,6.97
2023-04-29T05:25:34.849Z,6.87
2023-04-29T05:26:34.918Z,7.05
2023-04-29T05:27:34.928Z,6.90
2023-04-29T05:28:34.813Z,7.09
2023-04-29T05:29:34.813Z,7.01
2023-04-29T05:30:34.994Z,7.01
2023-04-29T05:31:34.779Z,7.08
2023-04-29T05:32:34.816Z,7.14
2023-04-29T05:33:34.771Z,7.09
2023-04-29T05:34:34.750Z,7.14
2023-04-29T05:35:34.751Z,7.19
2023-04-29T05:36:34.726Z,7.19
2023-04-29T05:37:34.714Z,7.29
2023-04-29T05:38:34.762Z,7.27
2023-04-29T05:39:34.693Z,7.23
2023-04-29T05:40:34.679Z,7.36
2023-04-29T05:41:34.679Z,7.50
2023-04-29T05:42:34.662Z,7.45
2023-04-29T05:43:36.191Z,7.45
2023-04-29T05:44:34.675Z,7.50
2023-04-29T05:45:34.666Z,7.54
2023-04-29T05:46:34.650Z,7.50
2023-04-29T05:47:34.620Z,7.54
2023-04-29T05:48:34.603Z,7.54
2023-04-29T05:49:34.596Z,7.60
2023-04-29T05:50:34.607Z,7.57
2023-04-29T05:51:34.568Z,7.57
2023-04-29T05:52:34.548Z,7.63
2023-04-29T05:53:34.542Z,7.55
2023-04-29T05:54:34.534Z,7.54
2023-04-29T05:55:34.519Z,7.55
2023-04-29T05:56:34.540Z,7.55
2023-04-29T05:57:34.497Z,7.60
2023-04-29T05:58:34.484Z,7.79
2023-04-29T05:59:34.581Z,7.73
2023-04-29T06:00:34.464Z,7.88
2023-04-29T06:01:34.492Z,7.84
2023-04-29T06:02:37.422Z,7.74
2023-04-29T06:03:35.578Z,7.86
2023-04-29T06:04:34.643Z,7.85
2023-04-29T06:05:34.803Z,7.86
2023-04-29T06:06:34.523Z,7.92
2023-04-29T06:07:34.387Z,7.89
2023-04-29T06:08:34.389Z,7.99
2023-04-29T06:09:34.371Z,7.91
2023-04-29T06:10:34.360Z,7.84
2023-04-29T06:11:34.361Z,7.76
2023-04-29T06:12:34.343Z,7.85
2023-04-29T06:13:34.341Z,7.85
2023-04-29T06:14:34.319Z,7.86
2023-04-29T06:15:34.326Z,7.89
2023-04-29T06:16:34.400Z,7.99
2023-04-29T06:17:34.314Z,7.89
2023-04-29T06:18:34.292Z,7.84
2023-04-29T06:19:34.267Z,7.92
2023-04-29T06:20:36.842Z,8.06
2023-04-29T06:21:34.243Z,8.10
2023-04-29T06:22:34.221Z,8.13
2023-04-29T06:23:34.259Z,8.28
2023-04-29T06:24:34.213Z,8.37
2023-04-29T06:25:34.191Z,8.32
2023-04-29T06:26:41.702Z,8.50
2023-04-29T06:27:34.177Z,8.50
2023-04-29T06:28:41.684Z,8.57
2023-04-29T06:29:34.148Z,8.50
2023-04-29T06:30:34.147Z,8.55
2023-04-29T06:31:34.244Z,8.68
2023-04-29T06:32:34.176Z,8.67
2023-04-29T06:33:34.124Z,8.71
2023-04-29T06:34:34.093Z,8.73
2023-04-29T06:35:34.103Z,8.78
2023-04-29T06:36:34.071Z,8.83
2023-04-29T06:37:41.586Z,9.06
2023-04-29T06:38:34.047Z,9.04
2023-04-29T06:39:41.574Z,9.10
2023-04-29T06:40:34.055Z,9.20
2023-04-29T06:41:34.015Z,9.22
2023-04-29T06:42:41.535Z,9.17
2023-04-29T06:43:33.994Z,9.22
2023-04-29T06:44:41.497Z,9.30
2023-04-29T06:45:41.508Z,9.30
2023-04-29T06:46:33.988Z,9.20
2023-04-29T06:47:33.980Z,9.10
2023-04-29T06:48:33.949Z,9.12
2023-04-29T06:49:33.940Z,9.06
2023-04-29T06:50:41.432Z,9.32
2023-04-29T06:51:33.918Z,9.41
2023-04-29T06:52:33.892Z,9.48
2023-04-29T06:53:33.884Z,9.42
2023-04-29T06:54:33.871Z,9.45
2023-04-29T06:55:33.864Z,9.53
2023-04-29T06:56:33.856Z,9.56
2023-04-29T06:57:33.871Z,9.56
2023-04-29T06:58:33.831Z,9.70
2023-04-29T06:59:33.832Z,9.70
2023-04-29T07:00:33.822Z,9.88
2023-04-29T07:01:33.825Z,10.10
2023-04-29T07:02:33.861Z,10.29
2023-04-29T07:03:33.898Z,10.14
2023-04-29T07:04:33.794Z,10.26
2023-04-29T07:05:33.778Z,10.28
2023-04-29T07:06:33.748Z,10.29
2023-04-29T07:07:33.736Z,10.32
2023-04-29T07:08:33.736Z,10.44
2023-04-29T07:09:33.717Z,10.54
2023-04-29T07:10:33.702Z,11.09
2023-04-29T07:11:33.713Z,11.48
2023-04-29T07:12:33.682Z,11.28
2023-04-29T07:13:33.684Z,11.21
2023-04-29T07:14:33.672Z,11.16
2023-04-29T07:15:33.649Z,11.11
2023-04-29T07:16:33.646Z,11.49
2023-04-29T07:17:33.686Z,11.63
2023-04-29T07:18:33.622Z,11.57
2023-04-29T07:19:33.628Z,11.60
2023-04-29T07:20:33.605Z,11.60
2023-04-29T07:21:33.587Z,11.67
2023-04-29T07:22:33.581Z,11.41
2023-04-29T07:23:33.570Z,11.63
2023-04-29T07:24:33.547Z,11.75
2023-04-29T07:25:33.542Z,11.81
2023-04-29T07:26:33.544Z,11.48
2023-04-29T07:27:33.549Z,11.39
2023-04-29T07:28:33.501Z,11.13
2023-04-29T07:29:33.520Z,11.20
2023-04-29T07:30:33.499Z,11.12
2023-04-29T07:31:34.380Z,11.27
2023-04-29T07:32:33.480Z,11.09
2023-04-29T07:33:33.452Z,11.02
2023-04-29T07:34:33.438Z,11.11
2023-04-29T07:35:33.451Z,11.01
2023-04-29T07:36:33.415Z,11.06
2023-04-29T07:37:33.420Z,11.19
2023-04-29T07:38:33.393Z,11.08
2023-04-29T07:39:33.384Z,11.01
2023-04-29T07:40:33.370Z,10.98
2023-04-29T07:41:33.429Z,10.99
2023-04-29T07:42:33.348Z,10.80
2023-04-29T07:43:33.354Z,10.68
2023-04-29T07:44:33.327Z,10.55
2023-04-29T07:45:33.322Z,10.63
2023-04-29T07:46:33.331Z,10.62
2023-04-29T07:47:33.340Z,10.57
2023-04-29T07:48:33.302Z,10.65
2023-04-29T07:49:33.275Z,10.94
2023-04-29T07:50:33.260Z,10.83
2023-04-29T07:51:33.277Z,11.17
2023-04-29T07:52:33.239Z,11.16
2023-04-29T07:53:33.243Z,11.05
2023-04-29T07:54:33.228Z,10.83
2023-04-29T07:55:33.213Z,10.88
2023-04-29T07:56:33.195Z,10.83
2023-04-29T07:57:33.209Z,10.91
2023-04-29T07:58:33.171Z,10.84
2023-04-29T07:59:33.186Z,11.12
2023-04-29T08:00:33.150Z,11.41
2023-04-29T08:01:33.144Z,11.53
2023-04-29T08:02:33.189Z,11.54
2023-04-29T08:03:33.305Z,11.59
2023-04-29T08:04:33.349Z,11.46
2023-04-29T08:05:33.772Z,11.36
2023-04-29T08:06:33.090Z,11.46
2023-04-29T08:07:33.092Z,11.56
2023-04-29T08:08:33.068Z,11.41
2023-04-29T08:09:33.065Z,11.36
2023-04-29T08:10:33.045Z,11.28
2023-04-29T08:11:33.060Z,11.11
2023-04-29T08:12:33.035Z,11.01
2023-04-29T08:13:33.014Z,10.83
2023-04-29T08:14:33.018Z,10.91
2023-04-29T08:15:33.001Z,10.87
2023-04-29T08:16:33.022Z,10.98
2023-04-29T08:17:33.007Z,11.59
2023-04-29T08:18:32.957Z,11.77
2023-04-29T08:19:32.994Z,11.90
2023-04-29T08:20:32.953Z,11.70
2023-04-29T08:21:32.922Z,11.85
2023-04-29T08:22:32.912Z,12.23
2023-04-29T08:23:32.932Z,11.85
2023-04-29T08:24:32.904Z,11.88
2023-04-29T08:25:32.907Z,12.01
2023-04-29T08:26:32.917Z,11.90
2023-04-29T08:27:32.870Z,12.13
2023-04-29T08:28:32.882Z,12.19
2023-04-29T08:29:32.844Z,12.71
2023-04-29T08:30:32.827Z,12.94
2023-04-29T08:31:32.843Z,12.79
2023-04-29T08:32:32.857Z,12.85
2023-04-29T08:33:32.813Z,12.88
2023-04-29T08:34:32.804Z,13.54
2023-04-29T08:35:32.783Z,13.80
2023-04-29T08:36:32.765Z,13.73
2023-04-29T08:37:32.765Z,13.36
2023-04-29T08:38:32.745Z,13.36
2023-04-29T08:39:32.769Z,12.92
2023-04-29T08:40:32.744Z,12.77
2023-04-29T08:41:32.719Z,13.01
2023-04-29T08:42:32.699Z,12.69
2023-04-29T08:43:32.685Z,12.98
2023-04-29T08:44:32.678Z,13.36
2023-04-29T08:45:32.726Z,13.16
2023-04-29T08:46:32.680Z,12.92
2023-04-29T08:47:32.715Z,12.79
2023-04-29T08:48:32.810Z,13.10
2023-04-29T08:49:32.619Z,13.06
2023-04-29T08:50:32.617Z,12.81
2023-04-29T08:51:32.598Z,12.71
2023-04-29T08:52:32.610Z,12.70
2023-04-29T08:53:32.588Z,12.63
2023-04-29T08:54:32.579Z,12.76
2023-04-29T08:55:32.640Z,12.70
2023-04-29T08:56:32.551Z,12.89
2023-04-29T08:57:32.531Z,12.91
2023-04-29T08:58:32.540Z,12.67
2023-04-29T08:59:32.527Z,12.73
2023-04-29T09:00:32.531Z,13.31
2023-04-29T09:01:32.560Z,13.35
2023-04-29T09:02:32.516Z,13.07
2023-04-29T09:03:32.541Z,12.99
2023-04-29T09:04:32.499Z,12.96
2023-04-29T09:05:32.460Z,12.52
2023-04-29T09:06:32.438Z,12.46
2023-04-29T09:07:32.436Z,12.48
2023-04-29T09:08:32.413Z,13.13
2023-04-29T09:09:32.413Z,13.06
2023-04-29T09:10:32.415Z,13.09
2023-04-29T09:11:32.400Z,13.48
2023-04-29T09:12:32.397Z,13.87
2023-04-29T09:13:32.361Z,13.86
2023-04-29T09:14:32.349Z,14.09
2023-04-29T09:15:32.339Z,14.34
2023-04-29T09:16:32.372Z,14.38
2023-04-29T09:17:32.363Z,14.27
2023-04-29T09:18:32.313Z,14.34
2023-04-29T09:19:32.299Z,14.26
2023-04-29T09:20:32.298Z,14.31
2023-04-29T09:21:32.305Z,14.35
2023-04-29T09:22:32.275Z,14.09
2023-04-29T09:23:32.263Z,14.16
2023-04-29T09:24:32.238Z,14.09
2023-04-29T09:25:32.243Z,14.66
2023-04-29T09:26:32.219Z,14.66
2023-04-29T09:27:32.231Z,14.67
2023-04-29T09:28:32.222Z,14.66
2023-04-29T09:29:32.181Z,14.87
2023-04-29T09:30:32.179Z,15.11
2023-04-29T09:31:32.199Z,15.38
2023-04-29T09:32:32.208Z,15.25
2023-04-29T09:33:32.151Z,15.01
2023-04-29T09:34:32.140Z,14.66
2023-04-29T09:35:32.121Z,14.19
2023-04-29T09:36:32.112Z,14.42
2023-04-29T09:37:32.099Z,14.21
2023-04-29T09:38:32.101Z,14.12
2023-04-29T09:39:32.077Z,14.08
2023-04-29T09:40:32.084Z,14.38
2023-04-29T09:41:32.055Z,14.79
2023-04-29T09:42:32.050Z,14.90
2023-04-29T09:43:32.106Z,14.38
2023-04-29T09:44:34.192Z,14.30
2023-04-29T09:45:32.013Z,14.52
2023-04-29T09:46:32.088Z,14.75
2023-04-29T09:47:32.084Z,14.30
2023-04-29T09:48:31.989Z,14.36
2023-04-29T09:49:31.984Z,14.45
2023-04-29T09:50:31.962Z,14.45
2023-04-29T09:51:31.948Z,14.78
2023-04-29T09:52:31.951Z,14.72
2023-04-29T09:53:32.073Z,14.63
2023-04-29T09:54:31.931Z,14.63
2023-04-29T09:55:31.905Z,14.93
2023-04-29T09:56:31.899Z,15.01
2023-04-29T09:57:31.890Z,15.07
2023-04-29T09:58:31.887Z,15.12
2023-04-29T09:59:31.891Z,14.98
2023-04-29T10:00:31.857Z,15.09
2023-04-29T10:01:31.842Z,15.28
2023-04-29T10:02:31.876Z,15.51
2023-04-29T10:03:31.925Z,15.33
2023-04-29T10:04:31.848Z,15.18
2023-04-29T10:05:31.800Z,15.38
2023-04-29T10:06:31.790Z,15.58
2023-04-29T10:07:31.774Z,15.59
2023-04-29T10:08:31.779Z,15.76
2023-04-29T10:09:31.753Z,16.06
2023-04-29T10:10:31.759Z,16.25
2023-04-29T10:11:31.740Z,16.22
2023-04-29T10:12:31.723Z,15.95
2023-04-29T10:13:31.706Z,16.11
2023-04-29T10:14:31.699Z,15.95
2023-04-29T10:15:31.717Z,15.66
2023-04-29T10:16:31.728Z,15.37
2023-04-29T10:17:31.664Z,15.30
2023-04-29T10:18:31.684Z,14.97
2023-04-29T10:19:31.644Z,14.94
2023-04-29T10:20:31.651Z,14.90
2023-04-29T10:21:31.881Z,14.83
2023-04-29T10:22:31.631Z,14.67
2023-04-29T10:23:31.597Z,14.71
2023-04-29T10:24:31.591Z,14.49
2023-04-29T10:25:31.597Z,14.71
2023-04-29T10:26:31.569Z,14.93
2023-04-29T10:27:31.560Z,14.83
2023-04-29T10:28:31.577Z,14.75
2023-04-29T10:29:31.535Z,14.54
2023-04-29T10:30:31.526Z,14.41
2023-04-29T10:31:31.568Z,14.42
2023-04-29T10:32:39.876Z,14.34
2023-04-29T10:33:32.534Z,14.21
2023-04-29T10:34:31.497Z,14.12
2023-04-29T10:35:31.468Z,14.04
2023-04-29T10:36:31.549Z,14.41
2023-04-29T10:37:31.448Z,14.97
2023-04-29T10:38:31.447Z,15.58
2023-04-29T10:39:31.440Z,15.62
2023-04-29T10:40:31.450Z,15.71
2023-04-29T10:41:31.401Z,15.93
2023-04-29T10:42:31.395Z,15.86
2023-04-29T10:43:31.384Z,15.67
2023-04-29T10:44:31.388Z,15.64
2023-04-29T10:45:31.390Z,15.81
2023-04-29T10:46:31.386Z,15.85
2023-04-29T10:47:31.388Z,15.84
2023-04-29T10:48:31.333Z,15.58
2023-04-29T10:49:31.318Z,15.33
2023-04-29T10:50:31.317Z,14.72
2023-04-29T10:51:31.315Z,14.63
2023-04-29T10:52:31.304Z,14.78
2023-04-29T10:53:31.286Z,14.75
2023-04-29T10:54:31.264Z,14.71
2023-04-29T10:55:31.262Z,14.67
2023-04-29T10:56:31.257Z,14.57
2023-04-29T10:57:31.229Z,14.71
2023-04-29T10:58:31.233Z,14.60
2023-04-29T10:59:31.212Z,14.79
2023-04-29T11:00:31.199Z,14.86
2023-04-29T11:01:31.282Z,15.22
2023-04-29T11:02:31.209Z,15.56
2023-04-29T11:03:31.330Z,15.91
2023-04-29T11:04:31.331Z,15.74
2023-04-29T11:05:31.158Z,15.74
2023-04-29T11:06:31.154Z,15.60
2023-04-29T11:07:31.150Z,15.18
2023-04-29T11:08:31.142Z,15.03
2023-04-29T11:09:31.101Z,14.93
2023-04-29T11:10:31.109Z,14.95
2023-04-29T11:11:31.098Z,14.72
2023-04-29T11:12:31.088Z,14.59
2023-04-29T11:13:31.071Z,14.49
2023-04-29T11:14:31.069Z,14.59
2023-04-29T11:15:31.038Z,14.38
2023-04-29T11:16:31.096Z,14.31
2023-04-29T11:17:31.069Z,14.27
2023-04-29T11:18:31.014Z,14.29
2023-04-29T11:19:31.057Z,14.29
2023-04-29T11:20:30.989Z,14.17
2023-04-29T11:21:31.001Z,14.16
2023-04-29T11:22:31.065Z,14.06
2023-04-29T11:23:30.975Z,14.11
2023-04-29T11:24:30.960Z,14.20
2023-04-29T11:25:30.954Z,14.21
2023-04-29T11:26:30.929Z,14.27
2023-04-29T11:27:30.932Z,14.29
2023-04-29T11:28:30.913Z,14.19
2023-04-29T11:29:30.904Z,14.06
2023-04-29T11:30:30.903Z,14.20
2023-04-29T11:31:30.922Z,14.57
2023-04-29T11:32:31.138Z,15.04
2023-04-29T11:33:30.897Z,15.19
2023-04-29T11:34:30.864Z,15.07
2023-04-29T11:35:30.938Z,15.33
2023-04-29T11:36:30.885Z,15.09
2023-04-29T11:37:30.874Z,14.90
2023-04-29T11:38:30.917Z,15.04
2023-04-29T11:39:30.899Z,15.18
2023-04-29T11:40:30.795Z,15.40
2023-04-29T11:41:30.766Z,15.27
2023-04-29T11:42:30.752Z,15.13
2023-04-29T11:43:30.739Z,14.72
2023-04-29T11:44:30.747Z,14.61
2023-04-29T11:45:30.717Z,15.16
2023-04-29T11:46:30.860Z,14.79
2023-04-29T11:47:30.856Z,14.79
2023-04-29T11:48:30.690Z,14.60
2023-04-29T11:49:30.699Z,14.59
2023-04-29T11:50:30.666Z,14.83
2023-04-29T11:51:30.683Z,14.98
2023-04-29T11:52:30.694Z,15.31
2023-04-29T11:53:30.633Z,15.20
2023-04-29T11:54:30.634Z,14.98
2023-04-29T11:55:30.611Z,14.98
2023-04-29T11:56:30.608Z,14.74
2023-04-29T11:57:30.589Z,14.97
2023-04-29T11:58:30.622Z,15.31
2023-04-29T11:59:30.582Z,15.68
2023-04-29T12:00:30.559Z,15.66
2023-04-29T12:01:30.545Z,15.62
2023-04-29T12:02:30.715Z,15.88
2023-04-29T12:03:30.636Z,15.77
2023-04-29T12:04:30.720Z,16.13
2023-04-29T12:05:30.536Z,16.33
2023-04-29T12:06:30.661Z,16.37
2023-04-29T12:07:30.507Z,16.55
2023-04-29T12:08:30.472Z,16.70
2023-04-29T12:09:30.477Z,16.91
2023-04-29T12:10:30.455Z,16.81
2023-04-29T12:11:30.456Z,16.78
2023-04-29T12:12:30.432Z,16.18
2023-04-29T12:13:30.449Z,16.13
2023-04-29T12:14:30.411Z,16.26
2023-04-29T12:15:30.406Z,16.27
2023-04-29T12:16:30.485Z,16.41
2023-04-29T12:17:30.427Z,16.32
2023-04-29T12:18:30.365Z,16.18
2023-04-29T12:19:30.353Z,16.32
2023-04-29T12:20:30.343Z,16.18
2023-04-29T12:21:30.330Z,15.85
2023-04-29T12:22:30.332Z,15.93
2023-04-29T12:23:30.370Z,16.25
2023-04-29T12:24:30.300Z,16.36
2023-04-29T12:25:30.300Z,16.51
2023-04-29T12:26:30.277Z,16.42
2023-04-29T12:27:30.264Z,16.48
2023-04-29T12:28:30.270Z,16.33
2023-04-29T12:29:30.258Z,16.55
2023-04-29T12:30:30.234Z,16.44
2023-04-29T12:31:30.236Z,16.40
2023-04-29T12:32:30.257Z,16.33
2023-04-29T12:33:30.204Z,16.07
2023-04-29T12:34:30.198Z,16.22
2023-04-29T12:35:30.192Z,16.11
2023-04-29T12:36:30.160Z,16.14
2023-04-29T12:37:30.153Z,15.99
2023-04-29T12:38:30.144Z,16.07
2023-04-29T12:39:30.153Z,16.13
2023-04-29T12:40:30.436Z,15.92
2023-04-29T12:41:30.121Z,15.73
2023-04-29T12:42:30.094Z,15.86
2023-04-29T12:43:30.085Z,15.92
2023-04-29T12:44:30.113Z,15.84
2023-04-29T12:45:30.070Z,16.01
2023-04-29T12:46:30.090Z,15.99
2023-04-29T12:47:30.086Z,16.22
2023-04-29T12:48:32.708Z,16.25
2023-04-29T12:49:30.027Z,16.67
2023-04-29T12:50:30.018Z,16.81
2023-04-29T12:51:30.000Z,17.10
2023-04-29T12:52:29.982Z,17.09
2023-04-29T12:53:29.983Z,17.28
2023-04-29T12:54:29.962Z,17.28
2023-04-29T12:55:29.974Z,17.07
2023-04-29T12:56:29.962Z,16.91
2023-04-29T12:57:29.932Z,16.95
2023-04-29T12:58:29.929Z,17.22
2023-04-29T12:59:29.925Z,17.05
2023-04-29T13:00:29.896Z,16.66
2023-04-29T13:01:29.939Z,16.85
2023-04-29T13:02:30.015Z,17.02
2023-04-29T13:03:30.061Z,17.03
2023-04-29T13:04:29.931Z,17.24
2023-04-29T13:05:29.855Z,17.06
2023-04-29T13:06:29.845Z,17.17